Time;durP1;ratioP1;P1;durP2;ratioP2;P2;SDS_P1;SDS_P2;PMS_P1;PMS_P2;Temp;Humidity;BMP_temperature;BMP_pressure;BME280_temperature;BME280_humidity;BME280_pressure;Samples;Min_cycle;Max_cycle;Signal;HPM_P1;HPM_P2
2022/04/07 00:00:04;;;;;;;36.00;25.80;;;;;;;7.51;45.97;100189.46;117333;1185;21881;-58
2022/04/07 00:02:33;;;;;;;34.00;23.00;;;;;;;7.52;46.24;100183.16;117322;1185;21849;-58
2022/04/07 00:05:02;;;;;;;32.20;22.10;;;;;;;7.54;46.03;100184.20;117321;1186;23458;-47
2022/04/07 00:07:32;;;;;;;35.50;25.50;;;;;;;7.56;46.43;100181.23;117094;1190;21893;-48
2022/04/07 00:10:02;;;;;;;33.90;24.20;;;;;;;7.57;46.36;100180.01;117291;1186;23487;-59
2022/04/07 00:12:34;;;;;;;35.80;23.60;;;;;;;7.59;46.41;100179.66;117315;1185;22926;-58
2022/04/07 00:15:03;;;;;;;37.60;25.30;;;;;;;7.62;46.29;100178.60;117329;1185;24170;-59
2022/04/07 00:17:31;;;;;;;39.70;26.00;;;;;;;7.63;46.58;100175.63;117357;1186;22929;-58
2022/04/07 00:20:00;;;;;;;43.70;25.90;;;;;;;7.64;46.51;100176.67;117334;1186;25767;-47
2022/04/07 00:22:34;;;;;;;38.40;27.20;;;;;;;7.64;46.76;100175.98;117307;1185;22013;-47
2022/04/07 00:25:03;;;;;;;;;;;;;;;7.65;46.71;100175.62;117281;1187;22599;-47
2022/04/07 00:27:33;;;;;;;37.70;24.90;;;;;;;7.65;46.75;100174.75;117298;1186;21886;-58
2022/04/07 00:30:03;;;;;;;39.70;26.50;;;;;;;7.65;46.84;100175.45;117350;1186;23461;-59
2022/04/07 00:32:40;;;;;;;38.80;27.00;;;;;;;7.64;46.96;100174.23;117349;1185;21839;-58
2022/04/07 00:35:09;;;;;;;39.60;26.60;;;;;;;7.66;46.98;100175.27;117187;1186;21896;-59
2022/04/07 00:37:39;;;;;;;40.00;28.70;;;;;;;7.69;47.02;100170.55;117268;1186;21895;-48
2022/04/07 00:40:09;;;;;;;40.50;28.40;;;;;;;7.71;46.94;100167.58;117100;1185;23463;-47
2022/04/07 00:42:49;;;;;;;38.80;27.20;;;;;;;7.75;46.92;100165.80;117194;1186;22105;-48
2022/04/07 00:45:33;;;;;;;39.70;29.00;;;;;;;7.80;46.90;100167.52;117108;1187;23453;-58
2022/04/07 00:48:03;;;;;;;42.10;30.10;;;;;;;7.80;46.95;100162.11;117121;1186;22921;-48
2022/04/07 00:50:31;;;;;;;40.00;29.70;;;;;;;7.80;46.96;100155.13;117344;1184;23471;-48
2022/04/07 00:53:00;;;;;;;44.60;31.70;;;;;;;7.81;47.25;100151.80;117150;1186;23477;-59
2022/04/07 00:55:29;;;;;;;45.20;30.80;;;;;;;7.82;47.43;100151.62;117222;1186;21926;-47
2022/04/07 00:57:58;;;;;;;42.90;30.00;;;;;;;7.84;47.38;100152.48;117126;1187;24294;-60
2022/04/07 01:00:30;;;;;;;43.50;31.30;;;;;;;7.86;47.38;100151.27;117177;1186;23487;-48
2022/04/07 01:02:59;;;;;;;41.00;30.80;;;;;;;7.88;47.55;100152.30;117208;1186;24169;-58
2022/04/07 01:05:31;;;;;;;43.70;32.00;;;;;;;7.88;47.37;100149.52;117235;1185;21845;-59
2022/04/07 01:07:59;;;;;;;43.70;31.20;;;;;;;7.90;47.51;100152.48;117252;1186;23472;-59
2022/04/07 01:10:29;;;;;;;41.50;30.20;;;;;;;7.90;47.65;100147.23;117276;1185;21853;-60
2022/04/07 01:12:59;;;;;;;44.30;32.00;;;;;;;7.89;47.65;100142.85;117271;1186;21854;-48
2022/04/07 01:15:47;;;;;;;39.00;29.80;;;;;;;7.88;47.53;100138.49;117290;1185;22158;-48
2022/04/07 01:18:16;;;;;;;38.40;29.10;;;;;;;7.87;47.41;100133.79;117256;1189;21848;-48
2022/04/07 01:20:45;;;;;;;38.00;27.30;;;;;;;7.87;47.31;100131.52;117251;1186;23553;-58
2022/04/07 01:23:14;;;;;;;37.20;27.80;;;;;;;7.86;47.36;100130.64;117363;1188;24148;-48
2022/04/07 01:25:42;;;;;;;38.10;29.60;;;;;;;7.83;47.25;100124.89;117156;1186;22948;-58
2022/04/07 01:28:11;;;;;;;36.20;27.50;;;;;;;7.81;47.40;100123.15;117081;1186;21865;-59
2022/04/07 01:30:40;;;;;;;34.00;26.90;;;;;;;7.80;47.20;100125.25;117275;1182;22308;-47
2022/04/07 01:33:09;;;;;;;34.30;26.90;;;;;;;7.81;47.47;100122.80;117250;1186;23450;-48
2022/04/07 01:35:39;;;;;;;32.80;24.80;;;;;;;7.80;47.42;100123.16;117119;1189;22673;-48
2022/04/07 01:38:07;;;;;;;31.20;24.60;;;;;;;7.81;47.42;100118.96;117295;1186;22946;-59
2022/04/07 01:40:36;;;;;;;33.80;24.30;;;;;;;7.81;47.49;100115.99;117133;1187;23453;-48
2022/04/07 01:43:06;;;;;;;35.70;25.60;;;;;;;7.80;47.43;100117.76;117319;1186;23006;-60
2022/04/07 01:45:34;;;;;;;32.80;25.60;;;;;;;7.78;47.62;100117.58;117237;1186;23463;-59
2022/04/07 01:48:03;;;;;;;33.90;25.10;;;;;;;7.77;47.37;100113.73;117196;1186;23477;-59
2022/04/07 01:50:39;;;;;;;28.50;22.50;;;;;;;7.75;47.28;100112.70;117078;1186;24154;-59
2022/04/07 01:53:09;;;;;;;32.80;24.00;;;;;;;7.74;47.57;100110.60;117217;1186;23663;-59
2022/04/07 01:55:38;;;;;;;30.40;22.90;;;;;;;7.72;47.51;100105.05;117225;1185;21857;-59
2022/04/07 01:58:08;;;;;;;30.10;24.70;;;;;;;7.70;47.57;100106.45;117250;1187;22931;-59
2022/04/07 02:00:36;;;;;;;31.00;24.50;;;;;;;7.69;47.33;100102.08;117097;1185;23444;-54
2022/04/07 02:03:10;;;;;;;26.50;21.20;;;;;;;7.72;47.69;100104.35;117125;1186;22826;-59
2022/04/07 02:05:39;;;;;;;26.20;20.00;;;;;;;7.73;47.56;100105.38;117196;1187;23022;-49
2022/04/07 02:08:08;;;;;;;29.80;21.50;;;;;;;7.74;47.41;100100.13;117080;1186;23710;-59
2022/04/07 02:10:53;;;;;;;28.50;22.10;;;;;;;7.74;47.59;100099.08;117163;1186;23576;-48
2022/04/07 02:13:22;;;;;;;24.40;19.50;;;;;;;7.72;47.68;100102.76;117235;1188;22620;-49
2022/04/07 02:16:11;;;;;;;24.00;18.80;;;;;;;7.71;47.66;100101.91;117125;1188;22932;-50
2022/04/07 02:18:40;;;;;;;23.00;18.70;;;;;;;7.73;47.63;100100.84;117243;1187;23654;-49
2022/04/07 02:21:08;;;;;;;26.60;20.30;;;;;;;7.74;47.78;100100.30;117309;1186;23477;-59
2022/04/07 02:23:42;;;;;;;26.70;19.50;;;;;;;7.69;47.64;100098.06;117166;1186;21854;-49
2022/04/07 02:26:11;;;;;;;25.30;19.60;;;;;;;7.66;47.83;100101.75;117198;1186;22334;-60
2022/04/07 02:28:40;;;;;;;22.70;18.00;;;;;;;7.66;47.63;100101.58;117243;1186;21849;-49
2022/04/07 02:31:09;;;;;;;23.30;18.20;;;;;;;7.65;47.64;100099.13;117263;1185;22653;-60
2022/04/07 02:33:38;;;;;;;23.30;17.70;;;;;;;7.65;47.70;100105.77;117105;1186;21849;-60
2022/04/07 02:36:09;;;;;;;24.20;17.70;;;;;;;7.65;47.86;100099.13;117236;1184;21852;-48
2022/04/07 02:38:40;;;;;;;23.40;17.40;;;;;;;7.65;47.68;100099.14;117216;1186;23942;-49
2022/04/07 02:41:09;;;;;;;23.60;16.50;;;;;;;7.67;47.71;100099.98;117238;1186;23656;-59
2022/04/07 02:43:39;;;;;;;;;;;;;;;7.67;47.86;100095.80;117222;1186;22901;-49
2022/04/07 02:46:08;;;;;;;22.10;16.10;;;;;;;7.68;47.87;100098.77;117281;1186;24337;-60
2022/04/07 02:48:37;;;;;;;20.20;15.50;;;;;;;7.69;47.88;100100.88;117414;1185;23574;-49
2022/04/07 02:51:06;;;;;;;23.30;16.50;;;;;;;7.70;48.01;100094.92;117223;1186;21840;-49
2022/04/07 02:53:35;;;;;;;23.10;17.40;;;;;;;7.71;48.02;100096.66;117274;1186;21856;-60
2022/04/07 02:56:04;;;;;;;23.10;16.20;;;;;;;7.72;47.84;100093.33;117273;1186;22923;-48
2022/04/07 02:58:32;;;;;;;21.30;15.90;;;;;;;7.73;48.08;100094.55;117228;1186;23588;-60
2022/04/07 03:01:01;;;;;;;21.30;16.00;;;;;;;7.72;48.11;100096.83;117204;1186;22807;-49
2022/04/07 03:03:31;;;;;;;21.00;15.30;;;;;;;7.72;48.00;100098.40;117080;1186;23551;-60
2022/04/07 03:05:59;;;;;;;16.30;13.40;;;;;;;7.73;48.13;100096.29;117253;1186;21859;-48
2022/04/07 03:08:28;;;;;;;21.40;15.30;;;;;;;7.74;48.03;100097.34;117273;1186;23568;-49
2022/04/07 03:11:17;;;;;;;21.30;14.60;;;;;;;7.73;47.80;100094.02;117083;1182;21856;-60
2022/04/07 03:13:46;;;;;;;24.70;17.20;;;;;;;7.71;47.95;100097.17;117284;1186;23459;-50
2022/04/07 03:16:14;;;;;;;22.40;15.50;;;;;;;7.67;47.96;100093.36;117192;1186;21843;-49
2022/04/07 03:19:02;;;;;;;20.60;15.30;;;;;;;7.63;47.81;100095.48;117161;1186;21885;-49
2022/04/07 03:21:51;;;;;;;20.20;15.50;;;;;;;7.57;48.12;100095.31;117222;1186;21902;-50
2022/04/07 03:24:19;;;;;;;19.00;14.80;;;;;;;7.55;47.94;100097.42;117235;1186;21977;-60
2022/04/07 03:27:07;;;;;;;21.50;15.00;;;;;;;7.49;47.75;100098.50;117225;1186;21955;-49
2022/04/07 03:29:35;;;;;;;21.20;15.70;;;;;;;7.43;47.80;100104.29;117069;1186;24015;-47
2022/04/07 03:32:05;;;;;;;22.50;15.30;;;;;;;7.36;47.76;100103.44;117254;1185;21850;-48
2022/04/07 03:34:36;;;;;;;19.10;14.40;;;;;;;7.31;47.72;100107.29;117260;1185;22433;-60
2022/04/07 03:37:05;;;;;;;21.30;14.70;;;;;;;7.27;47.63;100103.14;117961;1185;24144;-60
2022/04/07 03:39:34;;;;;;;18.90;13.60;;;;;;;7.23;47.80;100100.00;117426;1184;21957;-48
2022/04/07 03:42:03;;;;;;;22.40;15.80;;;;;;;7.19;47.73;100098.44;117356;1185;24169;-60
2022/04/07 03:44:32;;;;;;;17.40;13.30;;;;;;;7.17;47.78;100099.14;117252;1186;21878;-49
2022/04/07 03:47:00;;;;;;;19.80;14.30;;;;;;;7.16;48.13;100097.04;117897;1186;22949;-60
2022/04/07 03:49:45;;;;;;;17.10;12.80;;;;;;;7.13;47.99;100096.53;117322;1185;24178;-48
2022/04/07 03:52:15;;;;;;;17.50;12.10;;;;;;;7.12;48.03;100098.10;117244;1186;23472;-48
2022/04/07 03:54:43;;;;;;;16.90;12.50;;;;;;;7.14;48.04;100093.04;117356;1185;21863;-48
2022/04/07 03:57:12;;;;;;;14.90;12.00;;;;;;;7.18;48.18;100093.02;117355;1185;23469;-60
2022/04/07 03:59:42;;;;;;;17.60;12.40;;;;;;;7.20;48.23;100086.39;117409;1185;23472;-59
2022/04/07 04:02:12;;;;;;;17.40;13.20;;;;;;;7.23;48.11;100088.65;117283;1185;23485;-59
2022/04/07 04:04:46;;;;;;;15.20;12.40;;;;;;;7.28;48.49;100085.66;117358;1184;23479;-59
2022/04/07 04:07:16;;;;;;;15.00;11.20;;;;;;;7.31;48.39;100086.52;117368;1185;24422;-48
2022/04/07 04:10:04;;;;;;;14.40;11.20;;;;;;;7.30;48.44;100082.86;117332;1185;22313;-59
2022/04/07 04:12:43;;;;;;;14.60;11.70;;;;;;;7.32;48.34;100082.51;117186;1186;23469;-55
2022/04/07 04:15:11;;;;;;;17.50;11.30;;;;;;;7.34;48.39;100080.75;117202;1186;22947;-59
2022/04/07 04:17:41;;;;;;;15.40;11.70;;;;;;;7.38;48.32;100071.66;117354;1185;23041;-48
2022/04/07 04:20:10;;;;;;;15.70;11.20;;;;;;;7.44;48.43;100074.61;117149;1186;23450;-48
2022/04/07 04:22:58;;;;;;;15.10;11.20;;;;;;;7.51;48.37;100077.20;117187;1184;23557;-48
2022/04/07 04:25:27;;;;;;;18.30;11.10;;;;;;;7.56;48.74;100077.70;117373;1184;22560;-48
2022/04/07 04:27:55;;;;;;;13.30;10.80;;;;;;;7.61;48.67;100081.16;117353;1184;22826;-48
2022/04/07 04:30:25;;;;;;;14.90;11.40;;;;;;;7.66;48.45;100079.74;117236;1186;23531;-59
2022/04/07 04:32:54;;;;;;;16.70;11.80;;;;;;;7.71;48.62;100079.89;117258;1185;21938;-59
2022/04/07 04:35:24;;;;;;;17.80;11.60;;;;;;;7.75;48.81;100077.59;117302;1185;23503;-58
2022/04/07 04:37:55;;;;;;;14.30;11.20;;;;;;;7.83;48.77;100078.60;117293;1186;22836;-48
2022/04/07 04:40:23;;;;;;;15.60;10.70;;;;;;;7.94;48.58;100075.40;117224;1186;23555;-50
2022/04/07 04:42:52;;;;;;;17.70;11.30;;;;;;;8.05;48.62;100078.48;117342;1184;22710;-50
2022/04/07 04:45:20;;;;;;;17.20;11.60;;;;;;;8.15;48.99;100075.61;117260;1186;23564;-49
2022/04/07 04:47:52;;;;;;;14.90;10.00;;;;;;;8.25;48.80;100069.41;117288;1186;23598;-60
2022/04/07 04:50:21;;;;;;;16.80;9.80;;;;;;;8.33;48.87;100068.65;117331;1185;22909;-60
2022/04/07 04:52:51;;;;;;;17.90;10.90;;;;;;;8.43;48.97;100067.34;117432;1184;21849;-60
2022/04/07 04:55:19;;;;;;;14.80;11.10;;;;;;;8.54;49.17;100061.34;117224;1186;23555;-49
2022/04/07 04:57:52;;;;;;;16.90;10.50;;;;;;;8.65;49.04;100063.48;118820;1186;21845;-50
2022/04/07 05:00:21;;;;;;;13.60;9.10;;;;;;;8.78;49.14;100060.59;119040;1185;24155;-50
2022/04/07 05:02:49;;;;;;;14.70;10.10;;;;;;;8.92;49.12;100061.82;117356;1185;24143;-50
2022/04/07 05:05:18;;;;;;;15.10;9.70;;;;;;;9.07;49.05;100059.59;117081;1186;23461;-50
2022/04/07 05:07:47;;;;;;;15.80;10.10;;;;;;;9.21;49.18;100059.42;117397;1185;24143;-49
2022/04/07 05:10:15;;;;;;;15.90;10.80;;;;;;;9.34;49.17;100060.84;117241;1184;23507;-49
2022/04/07 05:13:04;;;;;;;16.70;10.00;;;;;;;9.51;49.37;100065.88;117248;1186;21899;-60
2022/04/07 05:15:32;;;;;;;21.50;10.70;;;;;;;9.64;49.27;100062.91;117255;1186;23554;-59
2022/04/07 05:18:01;;;;;;;14.70;8.70;;;;;;;9.77;49.37;100063.77;117342;1185;22539;-50
2022/04/07 05:20:30;;;;;;;13.30;9.10;;;;;;;9.89;49.38;100061.68;117361;1184;23030;-55
2022/04/07 05:22:58;;;;;;;19.40;9.00;;;;;;;10.01;49.46;100056.42;117419;1185;22645;-60
2022/04/07 05:25:28;;;;;;;14.70;8.70;;;;;;;10.15;49.49;100054.62;117275;1186;22806;-60
2022/04/07 05:27:57;;;;;;;13.60;8.00;;;;;;;10.29;49.50;100054.42;117376;1185;23584;-50
2022/04/07 05:30:25;;;;;;;13.20;7.60;;;;;;;10.41;49.46;100053.19;117338;1184;22514;-50
2022/04/07 05:32:54;;;;;;;15.70;7.60;;;;;;;10.48;49.40;100055.52;117191;1186;24176;-50
2022/04/07 05:35:27;;;;;;;12.80;7.60;;;;;;;10.54;49.43;100046.67;117122;1186;23495;-60
2022/04/07 05:37:59;;;;;;;16.20;8.40;;;;;;;10.60;49.47;100040.93;117120;1182;22930;-50
2022/04/07 05:40:27;;;;;;;10.70;6.80;;;;;;;10.71;49.60;100036.53;117098;1186;23020;-59
2022/04/07 05:42:56;;;;;;;14.20;7.20;;;;;;;10.83;49.44;100039.64;117139;1186;22628;-50
2022/04/07 05:45:26;;;;;;;10.30;6.30;;;;;;;10.95;49.56;100039.06;117114;1186;23637;-50
2022/04/07 05:47:54;;;;;;;11.50;6.00;;;;;;;11.09;49.56;100040.89;117131;1186;21930;-51
2022/04/07 05:50:24;;;;;;;10.30;5.60;;;;;;;11.22;49.56;100037.31;117111;1186;23676;-50
2022/04/07 05:52:52;;;;;;;10.80;5.60;;;;;;;11.34;49.86;100033.73;117075;1185;23547;-50
2022/04/07 05:55:21;;;;;;;11.20;5.00;;;;;;;11.49;49.83;100036.91;117080;1186;22785;-50
2022/04/07 05:57:49;;;;;;;8.90;4.80;;;;;;;11.64;49.61;100035.38;117131;1187;22932;-59
2022/04/07 06:00:18;;;;;;;8.20;5.00;;;;;;;11.77;49.61;100032.26;117089;1186;23563;-59
2022/04/07 06:02:48;;;;;;;8.50;5.00;;;;;;;11.89;49.57;100029.17;117074;1186;22847;-59
2022/04/07 06:05:18;;;;;;;;;;;;;;;12.02;49.49;100024.13;116896;1187;23470;-60
2022/04/07 06:07:47;;;;;;;7.90;4.30;;;;;;;12.15;49.42;100020.34;117091;1187;21885;-59
2022/04/07 06:10:15;;;;;;;9.10;4.60;;;;;;;12.28;49.54;100023.02;117129;1186;22623;-59
2022/04/07 06:12:46;;;;;;;7.50;4.30;;;;;;;12.44;49.64;100020.14;117167;1188;22653;-49
2022/04/07 06:15:15;;;;;;;9.70;4.70;;;;;;;12.56;49.48;100014.92;117321;1186;21848;-51
2022/04/07 06:17:44;;;;;;;179.00;70.60;;;;;;;12.67;49.39;100011.98;117134;1188;22809;-50
2022/04/07 06:20:13;;;;;;;31.90;14.30;;;;;;;12.77;49.34;100010.64;117025;1187;22713;-50
2022/04/07 06:22:43;;;;;;;10.70;4.40;;;;;;;12.86;49.49;99997.38;117224;1186;22848;-50
2022/04/07 06:25:12;;;;;;;8.20;3.90;;;;;;;12.98;49.44;99998.65;117105;1186;22705;-50
2022/04/07 06:27:45;;;;;;;10.30;5.80;;;;;;;13.12;49.19;99996.28;116944;1187;21858;-50
2022/04/07 06:30:18;;;;;;;32.00;18.60;;;;;;;13.26;49.39;99993.27;117136;1186;23292;-50
2022/04/07 06:32:48;;;;;;;27.50;16.80;;;;;;;13.35;49.30;99997.02;117065;1187;23557;-50
2022/04/07 06:35:16;;;;;;;10.40;6.50;;;;;;;13.47;49.18;99994.06;117246;1183;21846;-50
2022/04/07 06:37:52;;;;;;;7.40;3.80;;;;;;;13.59;49.17;99991.96;117323;1185;23580;-49
2022/04/07 06:40:29;;;;;;;8.00;3.70;;;;;;;13.70;49.22;99987.19;117323;1186;23595;-50
2022/04/07 06:42:59;;;;;;;8.10;4.10;;;;;;;13.78;49.05;99980.23;117255;1186;21853;-49
2022/04/07 06:45:28;;;;;;;7.70;3.60;;;;;;;13.87;49.32;99975.89;117286;1186;21911;-49
2022/04/07 06:47:57;;;;;;;6.90;3.30;;;;;;;13.94;49.23;99972.30;117101;1186;23718;-49
2022/04/07 06:50:26;;;;;;;7.20;3.80;;;;;;;14.07;49.28;99971.73;117229;1188;22927;-59
2022/04/07 06:52:55;;;;;;;5.60;3.20;;;;;;;14.22;49.20;99969.80;117284;1180;22927;-59
2022/04/07 06:55:24;;;;;;;7.20;3.70;;;;;;;14.33;49.18;99966.98;117291;1185;22965;-59
2022/04/07 06:58:02;;;;;;;5.70;3.40;;;;;;;14.42;49.15;99961.17;117059;1186;21858;-50
2022/04/07 07:00:32;;;;;;;9.40;3.50;;;;;;;14.53;49.02;99959.73;117256;1186;23907;-59
2022/04/07 07:03:03;;;;;;;14.10;6.90;;;;;;;14.75;49.15;99958.47;117261;1185;23541;-49
2022/04/07 07:05:33;;;;;;;6.10;4.00;;;;;;;14.93;48.87;99954.98;117280;1185;22927;-59
2022/04/07 07:08:17;;;;;;;8.30;3.70;;;;;;;15.02;48.71;99950.23;117245;1182;21850;-59
2022/04/07 07:11:06;;;;;;;10.30;5.70;;;;;;;15.13;48.53;99954.59;117262;1186;23534;-50
2022/04/07 07:13:36;;;;;;;10.40;3.00;;;;;;;15.23;48.43;99954.23;117194;1186;23650;-49
2022/04/07 07:16:05;;;;;;;6.20;2.70;;;;;;;15.30;48.37;99944.58;117259;1186;23255;-50
2022/04/07 07:18:34;;;;;;;6.80;2.60;;;;;;;15.42;48.37;99940.07;117331;1186;22912;-49
2022/04/07 07:21:02;;;;;;;5.60;2.10;;;;;;;15.56;48.30;99935.08;117278;1186;23535;-59
2022/04/07 07:23:32;;;;;;;6.50;2.30;;;;;;;15.69;48.22;99928.38;117267;1185;23575;-59
2022/04/07 07:26:02;;;;;;;4.30;2.10;;;;;;;15.82;48.18;99926.98;117174;1186;21846;-59
2022/04/07 07:28:31;;;;;;;3.20;1.70;;;;;;;15.98;48.22;99922.29;117127;1186;23556;-59
2022/04/07 07:31:13;;;;;;;4.70;1.70;;;;;;;16.20;48.22;99915.49;117151;1186;22626;-58
2022/04/07 07:33:42;;;;;;;3.70;1.50;;;;;;;16.38;48.10;99914.55;117223;1186;22750;-59
2022/04/07 07:36:11;;;;;;;4.90;1.60;;;;;;;16.46;47.82;99908.55;117240;1185;22623;-59
2022/04/07 07:38:45;;;;;;;5.90;2.20;;;;;;;16.54;47.66;99909.59;117258;1189;21853;-59
2022/04/07 07:41:14;;;;;;;4.50;1.40;;;;;;;16.62;47.53;99903.56;117250;1185;21853;-60
2022/04/07 07:43:42;;;;;;;5.10;1.60;;;;;;;16.75;47.58;99908.48;117241;1189;23557;-60
2022/04/07 07:46:11;;;;;;;3.70;1.60;;;;;;;16.87;47.40;99899.61;117250;1185;23573;-59
2022/04/07 07:48:40;;;;;;;5.00;1.80;;;;;;;16.91;47.30;99897.11;117419;1186;23018;-59
2022/04/07 07:51:08;;;;;;;4.50;1.50;;;;;;;16.99;47.29;99898.23;117269;1186;22624;-59
2022/04/07 07:53:37;;;;;;;5.50;1.80;;;;;;;17.09;47.26;99903.05;117280;1186;22828;-58
2022/04/07 07:56:06;;;;;;;5.10;1.60;;;;;;;17.17;47.17;99898.61;117123;1186;22805;-59
2022/04/07 07:58:35;;;;;;;4.90;2.00;;;;;;;17.21;47.01;99896.45;117046;1189;21855;-60
2022/04/07 08:01:03;;;;;;;6.80;2.10;;;;;;;17.24;46.96;99884.42;117216;1186;22159;-59
2022/04/07 08:03:32;;;;;;;5.40;2.00;;;;;;;17.27;46.89;99884.33;119196;1185;22248;-58
2022/04/07 08:06:00;;;;;;;3.90;1.90;;;;;;;17.29;46.96;99877.29;119221;1185;21804;-61
2022/04/07 08:08:30;;;;;;;9.10;2.30;;;;;;;17.28;46.77;99869.17;119283;1184;21824;-60
2022/04/07 08:11:18;;;;;;;4.70;1.70;;;;;;;17.36;47.02;99872.55;119382;1185;21876;-61
2022/04/07 08:13:47;;;;;;;4.70;1.80;;;;;;;17.45;46.93;99867.84;119312;1185;21762;-60
2022/04/07 08:16:17;;;;;;;7.60;2.10;;;;;;;17.47;46.61;99862.79;119217;1186;21768;-59
2022/04/07 08:18:45;;;;;;;10.00;2.40;;;;;;;17.47;46.61;99864.36;119305;1183;21707;-60
2022/04/07 08:21:14;;;;;;;4.80;2.40;;;;;;;17.39;46.34;99868.83;119226;1184;21842;-61
2022/04/07 08:23:42;;;;;;;7.10;2.10;;;;;;;17.32;46.50;99864.40;119235;1185;21757;-60
2022/04/07 08:26:11;;;;;;;6.20;2.30;;;;;;;17.37;46.51;99869.13;119348;1184;21833;-61
2022/04/07 08:28:40;;;;;;;6.90;2.40;;;;;;;17.38;46.57;99869.05;118043;1185;21978;-60
2022/04/07 08:31:12;;;;;;;7.90;2.70;;;;;;;17.37;46.36;99870.52;118959;1185;23461;-60
2022/04/07 08:33:40;;;;;;;5.70;2.60;;;;;;;17.35;46.35;99869.19;117155;1185;22806;-58
2022/04/07 08:36:12;;;;;;;7.40;1.90;;;;;;;17.31;46.30;99870.11;117490;1186;21849;-51
2022/04/07 08:38:40;;;;;;;7.40;2.00;;;;;;;17.27;46.21;99865.34;117372;1185;23560;-50
2022/04/07 08:41:09;;;;;;;5.30;2.40;;;;;;;17.26;46.15;99868.20;117328;1185;23461;-60
2022/04/07 08:43:42;;;;;;;7.80;2.30;;;;;;;17.23;46.10;99868.91;117203;1186;21868;-51
2022/04/07 08:46:11;;;;;;;4.70;1.80;;;;;;;17.20;46.13;99870.63;117245;1188;22617;-60
2022/04/07 08:48:42;;;;;;;7.80;2.00;;;;;;;17.15;46.02;99868.73;117131;1187;22942;-50
2022/04/07 08:51:11;;;;;;;7.30;2.30;;;;;;;17.10;46.19;99866.33;117296;1185;23968;-51
2022/04/07 08:53:39;;;;;;;7.20;2.20;;;;;;;17.11;46.09;99865.73;117244;1185;22718;-60
2022/04/07 08:56:08;;;;;;;7.30;2.60;;;;;;;17.13;46.10;99869.03;117188;1183;22608;-59
2022/04/07 08:58:37;;;;;;;6.80;2.50;;;;;;;17.17;46.15;99868.47;117114;1186;23555;-60
2022/04/07 09:01:07;;;;;;;7.70;2.60;;;;;;;17.24;46.26;99862.83;117201;1181;22893;-60
2022/04/07 09:03:35;;;;;;;7.10;2.50;;;;;;;17.29;46.20;99861.70;117304;1186;23551;-60
2022/04/07 09:06:05;;;;;;;7.50;2.30;;;;;;;17.21;45.82;99862.44;117262;1186;24185;-49
2022/04/07 09:08:38;;;;;;;7.90;3.20;;;;;;;17.11;45.76;99855.67;117416;1186;23469;-60
2022/04/07 09:11:08;;;;;;;7.00;2.70;;;;;;;16.99;45.90;99851.98;118471;1185;22051;-58
2022/04/07 09:13:42;;;;;;;5.60;2.40;;;;;;;16.85;45.51;99857.38;117230;1186;22642;-59
2022/04/07 09:16:14;;;;;;;5.20;2.00;;;;;;;16.67;45.61;99858.16;119250;1184;21870;-60
2022/04/07 09:18:44;;;;;;;6.30;2.10;;;;;;;16.54;45.54;99852.02;117313;1186;24271;-50
2022/04/07 09:21:34;;;;;;;9.20;2.50;;;;;;;16.46;45.69;99850.11;117834;1186;22176;-51
2022/04/07 09:24:07;;;;;;;5.90;2.10;;;;;;;16.39;45.86;99846.48;119301;1186;21777;-60
2022/04/07 09:26:39;;;;;;;7.90;2.50;;;;;;;16.39;45.81;99841.56;117908;1185;21948;-60
2022/04/07 09:29:08;;;;;;;5.20;2.20;;;;;;;16.41;46.00;99833.14;117270;1186;23573;-60
2022/04/07 09:31:50;;;;;;;5.60;2.20;;;;;;;16.51;46.12;99827.36;117223;1186;22811;-60
2022/04/07 09:34:32;;;;;;;11.60;2.50;;;;;;;16.61;45.91;99821.77;119234;1185;21867;-50
2022/04/07 09:37:08;;;;;;;6.70;2.10;;;;;;;16.73;46.14;99813.96;117409;1185;21837;-60
2022/04/07 09:39:39;;;;;;;8.30;2.30;;;;;;;16.92;46.16;99817.35;117368;1186;21852;-59
2022/04/07 09:42:29;;;;;;;6.70;2.10;;;;;;;16.99;45.84;99815.27;117257;1185;21846;-59
2022/04/07 09:44:59;;;;;;;6.40;2.60;;;;;;;17.02;45.76;99807.52;117859;1186;23473;-60
2022/04/07 09:47:34;;;;;;;;;;;;;;;17.00;45.66;99807.42;117255;1186;21906;-60
2022/04/07 09:50:06;;;;;;;9.30;2.70;;;;;;;16.99;45.77;99805.36;117260;1186;22528;-59
2022/04/07 09:52:40;;;;;;;7.20;3.20;;;;;;;16.98;45.67;99803.80;117203;1186;21853;-60
2022/04/07 09:55:09;;;;;;;6.00;2.40;;;;;;;16.92;45.51;99800.15;117247;1185;23674;-60
2022/04/07 09:57:44;;;;;;;7.70;2.80;;;;;;;16.93;45.71;99795.48;117204;1186;22631;-60
2022/04/07 10:00:14;;;;;;;47.50;16.90;;;;;;;17.16;45.86;99794.06;117254;1186;22806;-60
2022/04/07 10:02:46;;;;;;;11.80;4.20;;;;;;;17.28;45.53;99781.77;117189;1186;21870;-60
2022/04/07 10:05:15;;;;;;;12.60;3.20;;;;;;;17.29;45.41;99762.95;117218;1186;21865;-59
2022/04/07 10:07:49;;;;;;;10.90;3.50;;;;;;;17.31;45.45;99760.86;117086;1189;23576;-60
2022/04/07 10:10:18;;;;;;;13.10;2.90;;;;;;;17.39;45.68;99758.70;117125;1186;23571;-60
2022/04/07 10:13:09;;;;;;;9.30;2.80;;;;;;;17.45;45.58;99758.43;117315;1185;21839;-60
2022/04/07 10:15:40;;;;;;;7.00;2.40;;;;;;;17.42;45.30;99751.83;117061;1189;21901;-59
2022/04/07 10:18:24;;;;;;;;;;;;;;;17.34;45.30;99748.52;117251;1185;22930;-60
2022/04/07 10:20:57;;;;;;;9.70;2.90;;;;;;;17.26;45.00;99748.02;117286;1186;21842;-59
2022/04/07 10:24:14;;;;;;;10.00;3.00;;;;;;;17.16;45.21;99747.09;118047;1184;22131;-60
2022/04/07 10:26:44;;;;;;;6.80;2.60;;;;;;;17.16;45.14;99750.14;119096;1186;21781;-60
2022/04/07 10:29:23;;;;;;;9.00;3.00;;;;;;;17.01;44.79;99751.52;119089;1186;21844;-58
2022/04/07 10:32:11;;;;;;;8.70;2.90;;;;;;;16.89;44.88;99752.82;118254;1186;21880;-60
2022/04/07 10:34:53;;;;;;;8.50;3.10;;;;;;;16.85;45.04;99746.64;117115;1185;23542;-51
2022/04/07 10:37:44;;;;;;;19.50;4.50;;;;;;;16.93;45.19;99743.94;119262;1185;22221;-53
2022/04/07 10:40:35;;;;;;;11.90;3.50;;;;;;;17.10;45.28;99747.73;119338;1185;21831;-53
2022/04/07 10:43:14;;;;;;;8.00;3.20;;;;;;;17.06;44.89;99747.77;119317;1185;21767;-53
2022/04/07 10:45:44;;;;;;;9.30;2.90;;;;;;;16.95;44.85;99742.94;119322;1185;21796;-53
2022/04/07 10:48:32;;;;;;;8.00;2.90;;;;;;;16.87;44.77;99737.30;119329;1185;21778;-53
2022/04/07 10:51:06;;;;;;;12.00;3.30;;;;;;;16.65;44.43;99727.54;119259;1185;21804;-51
2022/04/07 10:53:39;;;;;;;11.20;3.20;;;;;;;16.43;44.56;99717.27;119315;1185;21837;-53
2022/04/07 10:56:24;;;;;;;9.30;3.20;;;;;;;16.27;44.66;99706.17;119270;1185;21828;-53
2022/04/07 10:58:54;;;;;;;10.60;4.50;;;;;;;16.14;44.68;99709.92;119307;1186;22149;-60
2022/04/07 11:01:29;;;;;;;11.00;3.50;;;;;;;15.93;44.60;99703.42;119306;1185;21843;-59
2022/04/07 11:04:17;;;;;;;10.00;3.00;;;;;;;15.78;44.87;99701.27;119322;1183;21831;-60
2022/04/07 11:07:17;;;;;;;10.40;3.10;;;;;;;15.65;44.86;99702.89;119316;1185;21833;-60
2022/04/07 11:10:11;;;;;;;10.70;3.00;;;;;;;15.45;44.92;99702.70;119334;1185;21793;-60
2022/04/07 11:13:01;;;;;;;6.70;3.60;;;;;;;15.33;45.06;99712.54;119231;1186;21800;-60
2022/04/07 11:15:33;;;;;;;7.70;3.20;;;;;;;15.19;44.94;99708.36;119323;1185;21791;-60
2022/04/07 11:18:19;;;;;;;10.00;3.30;;;;;;;15.09;45.12;99711.96;119292;1185;22135;-59
2022/04/07 11:21:02;;;;;;;12.40;2.70;;;;;;;15.09;45.16;99702.06;119298;1184;21780;-59
2022/04/07 11:23:52;;;;;;;9.30;3.40;;;;;;;15.03;45.10;99705.67;119348;1183;21788;-59
2022/04/07 11:26:26;;;;;;;10.10;3.50;;;;;;;14.89;45.10;99697.25;119320;1185;21775;-60
2022/04/07 11:29:06;;;;;;;13.40;4.50;;;;;;;14.72;45.20;99694.04;119294;1186;22341;-60
2022/04/07 11:31:41;;;;;;;8.20;3.20;;;;;;;14.52;45.38;99683.34;119361;1185;21776;-59
2022/04/07 11:34:42;;;;;;;8.90;2.80;;;;;;;14.30;45.47;99680.48;119321;1185;21781;-60
2022/04/07 11:37:17;;;;;;;7.30;2.90;;;;;;;14.08;45.58;99681.32;119331;1185;22236;-60
2022/04/07 11:39:53;;;;;;;13.30;4.10;;;;;;;13.98;45.72;99673.07;119285;1185;22407;-60